createdAt,value
2023-03-29T00:00:14.648Z,37.5731
2023-03-29T00:01:35.051Z,37.5546
2023-03-29T00:02:17.918Z,37.5483
2023-03-29T00:03:19.729Z,37.5323
2023-03-29T00:04:21.226Z,37.5577
2023-03-29T00:05:22.853Z,37.5723
2023-03-29T00:06:24.532Z,37.5731
2023-03-29T00:07:26.183Z,37.5877
2023-03-29T00:08:27.836Z,37.6015
2023-03-29T00:09:29.484Z,37.5638
2023-03-29T00:10:31.120Z,37.5385
2023-03-29T00:11:32.800Z,37.5492
2023-03-29T00:12:34.428Z,37.5954
2023-03-29T00:13:36.128Z,37.5846
2023-03-29T00:14:37.734Z,37.5969
2023-03-29T00:15:39.405Z,37.5869
2023-03-29T00:16:41.071Z,37.5677
2023-03-29T00:17:42.767Z,37.5869
2023-03-29T00:18:44.385Z,37.5854
2023-03-29T00:19:46.023Z,37.5685
2023-03-29T00:20:47.666Z,37.5831
2023-03-29T00:21:49.322Z,37.5877
2023-03-29T00:22:50.967Z,37.6123
2023-03-29T00:23:52.670Z,37.5931
2023-03-29T00:24:54.319Z,37.5862
2023-03-29T00:25:55.957Z,37.5877
2023-03-29T00:26:57.610Z,37.5892
2023-03-29T00:27:59.268Z,37.5931
2023-03-29T00:29:00.943Z,37.5838
2023-03-29T00:30:02.570Z,37.5615
2023-03-29T00:31:04.430Z,37.5823
2023-03-29T00:32:05.877Z,37.5777
2023-03-29T00:33:07.554Z,37.5708
2023-03-29T00:34:09.199Z,37.6054
2023-03-29T00:35:10.825Z,37.6154
2023-03-29T00:36:12.497Z,37.6092
2023-03-29T00:37:14.112Z,37.5731
2023-03-29T00:38:15.798Z,37.5808
2023-03-29T00:39:17.449Z,37.5862
2023-03-29T00:40:19.099Z,37.5738
2023-03-29T00:41:20.734Z,37.5685
2023-03-29T00:42:22.407Z,37.5892
2023-03-29T00:43:24.041Z,37.5823
2023-03-29T00:44:25.744Z,37.5777
2023-03-29T00:45:27.354Z,37.5762
2023-03-29T00:46:29.108Z,37.5746
2023-03-29T00:47:30.671Z,37.5800
2023-03-29T00:48:32.383Z,37.5862
2023-03-29T00:49:33.994Z,37.6054
2023-03-29T00:50:35.647Z,37.6169
2023-03-29T00:51:37.291Z,37.6246
2023-03-29T00:52:38.950Z,37.6300
2023-03-29T00:53:40.580Z,37.6200
2023-03-29T00:54:42.294Z,37.6192
2023-03-29T00:55:43.895Z,37.5985
2023-03-29T00:56:45.578Z,37.5923
2023-03-29T00:57:47.200Z,37.5792
2023-03-29T00:58:48.871Z,37.5854
2023-03-29T00:59:50.579Z,37.5900
2023-03-29T01:00:52.206Z,37.6015
2023-03-29T01:01:53.871Z,37.6085
2023-03-29T01:02:55.538Z,37.5792
2023-03-29T01:03:57.154Z,37.6023
2023-03-29T01:04:58.817Z,37.6023
2023-03-29T01:06:00.462Z,37.5977
2023-03-29T01:07:02.159Z,37.5846
2023-03-29T01:08:03.757Z,37.6046
2023-03-29T01:09:05.419Z,37.6162
2023-03-29T01:10:07.085Z,37.5985
2023-03-29T01:11:08.735Z,37.5877
2023-03-29T01:12:10.388Z,37.6015
2023-03-29T01:13:12.043Z,37.5969
2023-03-29T01:14:13.684Z,37.6085
2023-03-29T01:15:15.398Z,37.6154
2023-03-29T01:16:17.094Z,37.6162
2023-03-29T01:17:18.683Z,37.6031
2023-03-29T01:18:20.307Z,37.6092
2023-03-29T01:19:21.977Z,37.6085
2023-03-29T01:20:23.635Z,37.6108
2023-03-29T01:21:25.285Z,37.6215
2023-03-29T01:22:26.931Z,37.6154
2023-03-29T01:23:28.599Z,37.5854
2023-03-29T01:24:30.225Z,37.5931
2023-03-29T01:25:31.918Z,37.6000
2023-03-29T01:26:33.540Z,37.5862
2023-03-29T01:27:35.208Z,37.5762
2023-03-29T01:28:36.847Z,37.5754
2023-03-29T01:29:38.507Z,37.5785
2023-03-29T01:30:40.173Z,37.5685
2023-03-29T01:31:41.902Z,37.5738
2023-03-29T01:32:43.450Z,37.5885
2023-03-29T01:33:45.142Z,37.6108
2023-03-29T01:34:46.802Z,37.5992
2023-03-29T01:35:48.521Z,37.6031
2023-03-29T01:36:50.073Z,37.6277
2023-03-29T01:37:51.760Z,37.6862
2023-03-29T01:38:53.401Z,37.6762
2023-03-29T01:39:55.061Z,37.6569
2023-03-29T01:40:56.722Z,37.6369
2023-03-29T01:41:58.367Z,37.6223
2023-03-29T01:43:00.024Z,37.6485
2023-03-29T01:44:01.692Z,37.6508
2023-03-29T01:45:03.325Z,37.8669
2023-03-29T01:46:05.454Z,38.9177
2023-03-29T01:47:06.630Z,39.0938
2023-03-29T01:48:08.303Z,39.9769
2023-03-29T01:49:09.950Z,39.0231
2023-03-29T01:50:11.620Z,39.3754
2023-03-29T01:51:13.316Z,39.6469
2023-03-29T01:52:14.941Z,39.7462
2023-03-29T01:53:16.572Z,39.7785
2023-03-29T01:54:18.245Z,40.0062
2023-03-29T01:55:19.879Z,40.0477
2023-03-29T01:56:21.571Z,39.5946
2023-03-29T01:57:23.276Z,39.9792
2023-03-29T01:58:24.861Z,40.0346
2023-03-29T01:59:26.500Z,39.6638
2023-03-29T02:00:28.152Z,39.2292
2023-03-29T02:01:29.841Z,39.3823
2023-03-29T02:02:31.560Z,39.5246
2023-03-29T02:03:33.199Z,39.5938
2023-03-29T02:04:34.796Z,39.6754
2023-03-29T02:05:36.409Z,39.6069
2023-03-29T02:06:38.100Z,39.7031
2023-03-29T02:07:39.713Z,39.5562
2023-03-29T02:08:41.386Z,39.3469
2023-03-29T02:09:43.022Z,39.3038
2023-03-29T02:10:44.692Z,39.1608
2023-03-29T02:11:46.353Z,39.3254
2023-03-29T02:12:48.001Z,39.4862
2023-03-29T02:13:49.641Z,39.3423
2023-03-29T02:14:51.304Z,39.5662
2023-03-29T02:15:53.117Z,39.6846
2023-03-29T02:16:54.633Z,39.7677
2023-03-29T02:17:56.262Z,39.5062
2023-03-29T02:18:57.933Z,39.6262
2023-03-29T02:19:59.549Z,39.3446
2023-03-29T02:21:01.441Z,39.0731
2023-03-29T02:22:02.892Z,39.0677
2023-03-29T02:23:04.537Z,38.9615
2023-03-29T02:24:06.156Z,39.0600
2023-03-29T02:25:07.841Z,39.1677
2023-03-29T02:26:09.460Z,39.0785
2023-03-29T02:27:11.178Z,39.1754
2023-03-29T02:28:12.781Z,39.1000
2023-03-29T02:29:14.446Z,38.9531
2023-03-29T02:30:16.083Z,39.0962
2023-03-29T02:31:17.788Z,39.0423
2023-03-29T02:32:19.405Z,38.9285
2023-03-29T02:33:21.048Z,38.9754
2023-03-29T02:34:22.756Z,38.9738
2023-03-29T02:35:24.359Z,38.9946
2023-03-29T02:36:25.987Z,39.0254
2023-03-29T02:37:27.686Z,39.0569
2023-03-29T02:38:29.303Z,38.9831
2023-03-29T02:39:30.972Z,38.9323
2023-03-29T02:40:32.609Z,38.9723
2023-03-29T02:41:34.262Z,38.8954
2023-03-29T02:42:35.949Z,38.9015
2023-03-29T02:43:37.572Z,38.9446
2023-03-29T02:44:39.278Z,38.9162
2023-03-29T02:45:40.936Z,38.9792
2023-03-29T02:46:42.691Z,38.9600
2023-03-29T02:47:44.364Z,38.9169
2023-03-29T02:48:45.887Z,38.9492
2023-03-29T02:49:50.343Z,38.9292
2023-03-29T02:50:49.215Z,38.9254
2023-03-29T02:51:50.844Z,38.9262
2023-03-29T02:52:52.562Z,38.8977
2023-03-29T02:53:54.148Z,38.8477
2023-03-29T02:54:55.829Z,38.8685
2023-03-29T02:55:57.449Z,38.9162
2023-03-29T02:56:59.160Z,38.8554
2023-03-29T02:58:00.780Z,38.8623
2023-03-29T02:59:02.433Z,38.8408
2023-03-29T03:00:04.075Z,38.8485
2023-03-29T03:01:05.730Z,38.8531
2023-03-29T03:02:07.435Z,38.8369
2023-03-29T03:03:09.214Z,38.8538
2023-03-29T03:04:10.749Z,38.8292
2023-03-29T03:05:12.352Z,38.8215
2023-03-29T03:06:14.931Z,38.8477
2023-03-29T03:07:15.663Z,38.8300
2023-03-29T03:08:17.304Z,38.8254
2023-03-29T03:09:18.949Z,38.7838
2023-03-29T03:10:20.601Z,38.7669
2023-03-29T03:11:22.260Z,38.8046
2023-03-29T03:12:23.902Z,38.8031
2023-03-29T03:13:25.590Z,38.7677
2023-03-29T03:14:27.209Z,38.8185
2023-03-29T03:15:28.875Z,38.8108
2023-03-29T03:16:30.588Z,38.8362
2023-03-29T03:17:32.195Z,38.7854
2023-03-29T03:18:33.998Z,38.8154
2023-03-29T03:19:35.485Z,38.8254
2023-03-29T03:20:37.095Z,38.7808
2023-03-29T03:21:38.786Z,38.7892
2023-03-29T03:22:40.420Z,38.8023
2023-03-29T03:23:42.123Z,38.7938
2023-03-29T03:24:43.704Z,38.7469
2023-03-29T03:25:45.366Z,38.7638
2023-03-29T03:26:47.016Z,38.7446
2023-03-29T03:27:48.691Z,38.7546
2023-03-29T03:28:50.351Z,38.7331
2023-03-29T03:29:51.982Z,38.7377
2023-03-29T03:30:53.640Z,38.8038
2023-03-29T03:31:55.310Z,38.7923
2023-03-29T03:32:56.953Z,38.7985
2023-03-29T03:33:58.594Z,38.7585
2023-03-29T03:35:00.216Z,38.7685
2023-03-29T03:36:01.983Z,38.7646
2023-03-29T03:37:03.522Z,38.7777
2023-03-29T03:38:05.195Z,38.8077
2023-03-29T03:39:06.841Z,38.8323
2023-03-29T03:40:08.495Z,38.7800
2023-03-29T03:41:10.133Z,38.8162
2023-03-29T03:42:11.804Z,38.8238
2023-03-29T03:43:13.434Z,38.8300
2023-03-29T03:44:15.134Z,38.7900
2023-03-29T03:45:16.745Z,38.7608
2023-03-29T03:46:18.500Z,38.7869
2023-03-29T03:47:20.046Z,38.8008
2023-03-29T03:48:21.726Z,38.8223
2023-03-29T03:49:23.408Z,38.8292
2023-03-29T03:50:25.024Z,38.8108
2023-03-29T03:51:26.666Z,38.8031
2023-03-29T03:52:28.336Z,38.7800
2023-03-29T03:53:29.973Z,38.7908
2023-03-29T03:54:31.664Z,38.8215
2023-03-29T03:55:33.309Z,38.8015
2023-03-29T03:56:34.964Z,38.8338
2023-03-29T03:57:36.584Z,38.8454
2023-03-29T03:58:38.254Z,38.8431
2023-03-29T03:59:39.919Z,38.8200
2023-03-29T04:00:41.563Z,38.7854
2023-03-29T04:01:43.208Z,38.8308
2023-03-29T04:02:44.904Z,38.8577
2023-03-29T04:03:46.543Z,38.8508
2023-03-29T04:04:48.188Z,38.8731
2023-03-29T04:05:49.812Z,38.8369
2023-03-29T04:06:51.497Z,38.8508
2023-03-29T04:07:53.121Z,38.8285
2023-03-29T04:08:54.792Z,38.8185
2023-03-29T04:09:56.462Z,38.8185
2023-03-29T04:10:58.107Z,38.8254
2023-03-29T04:11:59.745Z,38.8362
2023-03-29T04:13:01.462Z,38.8469
2023-03-29T04:14:03.056Z,38.8700
2023-03-29T04:15:04.748Z,38.8708
2023-03-29T04:16:06.392Z,38.8308
2023-03-29T04:17:08.052Z,38.8500
2023-03-29T04:18:09.757Z,38.8438
2023-03-29T04:19:11.349Z,38.8392
2023-03-29T04:20:13.015Z,38.8508
2023-03-29T04:21:14.648Z,38.8285
2023-03-29T04:22:16.284Z,38.8292
2023-03-29T04:23:17.975Z,38.8569
2023-03-29T04:24:19.604Z,38.8531
2023-03-29T04:25:21.294Z,38.8577
2023-03-29T04:26:22.915Z,38.8546
2023-03-29T04:27:24.565Z,38.8492
2023-03-29T04:28:26.253Z,38.8400
2023-03-29T04:29:27.853Z,38.8408
2023-03-29T04:30:29.546Z,38.8831
2023-03-29T04:31:31.272Z,38.8746
2023-03-29T04:32:32.855Z,38.8754
2023-03-29T04:33:34.472Z,38.8508
2023-03-29T04:34:36.140Z,38.8862
2023-03-29T04:35:37.851Z,38.8985
2023-03-29T04:36:39.453Z,38.9100
2023-03-29T04:37:41.078Z,38.9162
2023-03-29T04:38:46.097Z,38.8900
2023-03-29T04:39:44.380Z,38.8985
2023-03-29T04:40:46.072Z,38.8769
2023-03-29T04:41:47.687Z,38.8900
2023-03-29T04:42:49.365Z,38.9015
2023-03-29T04:43:51.000Z,38.9023
2023-03-29T04:44:52.698Z,38.5631
2023-03-29T04:45:54.379Z,31.5862
2023-03-29T04:46:55.992Z,29.0408
2023-03-29T04:47:57.663Z,28.2415
2023-03-29T04:48:59.317Z,27.5969
2023-03-29T04:50:00.912Z,27.5223
2023-03-29T04:51:02.777Z,28.3131
2023-03-29T04:52:04.226Z,29.4292
2023-03-29T04:53:05.896Z,29.4415
2023-03-29T04:54:07.530Z,29.6815
2023-03-29T04:55:09.232Z,30.4638
2023-03-29T04:56:10.858Z,30.7346
2023-03-29T04:57:12.559Z,32.1285
2023-03-29T04:58:14.121Z,33.1485
2023-03-29T04:59:15.795Z,34.3438
2023-03-29T05:00:17.463Z,35.0477
2023-03-29T05:01:19.171Z,35.1454
2023-03-29T05:02:20.736Z,34.7062
2023-03-29T05:03:22.418Z,34.4523
2023-03-29T05:04:24.065Z,34.5054
2023-03-29T05:05:25.732Z,35.0169
2023-03-29T05:06:27.376Z,35.0085
2023-03-29T05:07:29.085Z,35.2315
2023-03-29T05:08:30.664Z,35.0915
2023-03-29T05:09:35.037Z,35.5285
2023-03-29T05:10:33.977Z,35.2354
2023-03-29T05:11:35.678Z,35.1185
2023-03-29T05:12:37.285Z,34.9915
2023-03-29T05:13:38.937Z,35.0792
2023-03-29T05:14:40.589Z,35.3862
2023-03-29T05:15:42.267Z,35.7031
2023-03-29T05:16:43.999Z,35.3954
2023-03-29T05:17:45.576Z,35.3354
2023-03-29T05:18:47.214Z,35.3592
2023-03-29T05:19:48.883Z,35.1785
2023-03-29T05:20:50.535Z,35.2854
2023-03-29T05:21:52.219Z,35.4200
2023-03-29T05:22:53.858Z,35.5146
2023-03-29T05:23:55.503Z,35.6931
2023-03-29T05:24:57.135Z,35.9562
2023-03-29T05:25:58.808Z,36.2238
2023-03-29T05:27:00.468Z,36.0762
2023-03-29T05:28:02.112Z,36.1054
2023-03-29T05:29:03.749Z,36.2262
2023-03-29T05:30:05.422Z,36.3962
2023-03-29T05:31:07.068Z,36.5623
2023-03-29T05:32:08.857Z,36.5500
2023-03-29T05:33:10.405Z,36.4369
2023-03-29T05:34:12.032Z,36.3908
2023-03-29T05:35:13.661Z,36.5046
2023-03-29T05:36:15.408Z,36.4838
2023-03-29T05:37:17.024Z,36.4900
2023-03-29T05:38:18.648Z,36.5569
2023-03-29T05:39:20.283Z,36.6092
2023-03-29T05:40:21.966Z,36.6877
2023-03-29T05:41:23.622Z,37.2315
2023-03-29T05:42:25.283Z,37.6015
2023-03-29T05:43:26.898Z,37.8077
2023-03-29T05:44:28.581Z,37.6054
2023-03-29T05:45:30.276Z,37.1900
2023-03-29T05:46:31.896Z,37.1138
2023-03-29T05:47:33.637Z,36.7285
2023-03-29T05:48:35.303Z,36.5062
2023-03-29T05:49:36.852Z,36.3831
2023-03-29T05:50:38.476Z,36.4146
2023-03-29T05:51:40.145Z,36.3238
2023-03-29T05:52:41.810Z,36.4308
2023-03-29T05:53:43.466Z,36.4862
2023-03-29T05:54:45.135Z,36.5985
2023-03-29T05:55:46.782Z,36.7715
2023-03-29T05:56:48.456Z,36.9069
2023-03-29T05:57:50.106Z,36.9877
2023-03-29T05:58:53.657Z,37.0500
2023-03-29T05:59:53.411Z,37.0092
2023-03-29T06:00:55.010Z,37.1523
2023-03-29T06:01:56.734Z,37.2223
2023-03-29T06:03:03.780Z,37.2323
2023-03-29T06:04:00.102Z,37.2833
2023-03-29T06:05:01.657Z,37.2662
2023-03-29T06:06:03.310Z,37.3623
2023-03-29T06:07:04.934Z,37.4946
2023-03-29T06:08:06.631Z,37.6392
2023-03-29T06:09:08.250Z,37.5908
2023-03-29T06:10:09.918Z,36.3200
2023-03-29T06:11:11.543Z,30.5277
2023-03-29T06:12:13.216Z,29.6262
2023-03-29T06:13:14.878Z,29.1754
2023-03-29T06:14:16.516Z,29.0646
2023-03-29T06:15:18.156Z,28.7100
2023-03-29T06:16:19.839Z,28.7862
2023-03-29T06:17:21.457Z,28.9669
2023-03-29T06:18:23.180Z,29.7262
2023-03-29T06:19:24.764Z,30.8392
2023-03-29T06:20:26.447Z,31.8692
2023-03-29T06:21:28.063Z,30.8600
2023-03-29T06:22:29.754Z,31.1285
2023-03-29T06:23:31.411Z,31.4692
2023-03-29T06:24:33.044Z,31.4746
2023-03-29T06:25:34.699Z,31.7762
2023-03-29T06:26:36.349Z,31.5154
2023-03-29T06:27:38.008Z,31.7600
2023-03-29T06:28:39.702Z,32.0254
2023-03-29T06:29:41.298Z,31.8554
2023-03-29T06:30:42.962Z,32.2962
2023-03-29T06:31:44.668Z,32.2285
2023-03-29T06:32:46.332Z,32.5738
2023-03-29T06:33:47.931Z,32.9238
2023-03-29T06:34:49.600Z,33.4138
2023-03-29T06:35:51.305Z,33.6569
2023-03-29T06:36:52.888Z,33.8208
2023-03-29T06:37:54.562Z,33.6677
2023-03-29T06:38:56.240Z,33.8423
2023-03-29T06:39:57.841Z,33.6969
2023-03-29T06:40:59.610Z,33.6992
2023-03-29T06:42:10.057Z,33.8154
2023-03-29T06:43:02.804Z,33.9275
2023-03-29T06:44:04.450Z,33.7977
2023-03-29T06:45:06.138Z,33.7492
2023-03-29T06:46:07.790Z,33.8285
2023-03-29T06:47:09.528Z,33.8392
2023-03-29T06:48:11.171Z,33.8685
2023-03-29T06:49:12.869Z,33.7292
2023-03-29T06:50:14.445Z,33.8446
2023-03-29T06:51:16.118Z,33.9931
2023-03-29T06:52:17.744Z,34.1862
2023-03-29T06:53:19.415Z,34.0923
2023-03-29T06:54:21.142Z,34.1169
2023-03-29T06:55:22.721Z,34.4692
2023-03-29T06:56:24.370Z,34.9715
2023-03-29T06:57:26.177Z,35.1700
2023-03-29T06:58:27.662Z,35.3100
2023-03-29T06:59:29.368Z,34.9438
2023-03-29T07:00:30.988Z,34.9815
2023-03-29T07:01:32.651Z,35.1262
2023-03-29T07:02:34.285Z,35.3531
2023-03-29T07:03:35.959Z,35.4062
2023-03-29T07:04:37.670Z,35.4992
2023-03-29T07:05:39.311Z,35.5731
2023-03-29T07:06:40.889Z,35.5354
2023-03-29T07:07:42.559Z,35.5962
2023-03-29T07:08:44.202Z,35.6131
2023-03-29T07:09:45.880Z,35.6246
2023-03-29T07:10:47.602Z,35.6808
2023-03-29T07:11:49.168Z,35.6323
2023-03-29T07:12:50.796Z,35.6515
2023-03-29T07:13:52.490Z,35.7531
2023-03-29T07:14:54.147Z,35.7085
2023-03-29T07:15:55.838Z,35.7746
2023-03-29T07:16:57.445Z,35.8954
2023-03-29T07:17:59.181Z,35.8446
2023-03-29T07:19:00.738Z,35.8615
2023-03-29T07:20:02.499Z,35.9662
2023-03-29T07:21:04.154Z,36.0215
2023-03-29T07:22:05.708Z,36.0200
2023-03-29T07:23:07.370Z,36.0054
2023-03-29T07:24:09.007Z,35.9062
2023-03-29T07:25:10.693Z,35.9646
2023-03-29T07:26:12.323Z,36.1746
2023-03-29T07:27:13.977Z,36.2415
2023-03-29T07:28:15.670Z,36.0485
2023-03-29T07:29:17.288Z,36.1254
2023-03-29T07:30:18.942Z,36.1877
2023-03-29T07:31:20.558Z,36.2362
2023-03-29T07:32:22.497Z,36.4092
2023-03-29T07:33:23.998Z,36.5300
2023-03-29T07:34:25.540Z,36.5831
2023-03-29T07:35:27.189Z,36.5646
2023-03-29T07:36:28.870Z,36.4662
2023-03-29T07:37:30.493Z,36.5469
2023-03-29T07:38:32.179Z,36.6100
2023-03-29T07:39:33.797Z,36.6238
2023-03-29T07:40:35.476Z,36.6831
2023-03-29T07:41:37.099Z,36.7523
2023-03-29T07:42:38.792Z,36.7654
2023-03-29T07:43:40.422Z,36.7815
2023-03-29T07:44:42.097Z,36.7508
2023-03-29T07:45:43.743Z,36.8531
2023-03-29T07:46:45.412Z,36.9831
2023-03-29T07:47:47.032Z,36.9931
2023-03-29T07:48:48.696Z,36.9638
2023-03-29T07:49:50.330Z,36.9069
2023-03-29T07:50:52.048Z,36.9508
2023-03-29T07:51:53.635Z,36.9823
2023-03-29T07:52:55.286Z,36.9415
2023-03-29T07:53:56.958Z,36.9492
2023-03-29T07:54:58.589Z,36.9869
2023-03-29T07:56:00.270Z,37.0462
2023-03-29T07:57:01.978Z,37.0146
2023-03-29T07:58:03.548Z,37.0015
2023-03-29T07:59:05.221Z,36.9923
2023-03-29T08:00:06.856Z,36.9977
2023-03-29T08:01:08.639Z,37.0692
2023-03-29T08:02:10.161Z,37.1077
2023-03-29T08:03:11.895Z,37.0723
2023-03-29T08:04:13.534Z,37.0569
2023-03-29T08:05:17.476Z,37.0615
2023-03-29T08:06:16.838Z,37.0033
2023-03-29T08:07:18.967Z,37.0192
2023-03-29T08:08:20.078Z,37.0669
2023-03-29T08:09:21.766Z,37.0454
2023-03-29T08:10:23.384Z,37.0269
2023-03-29T08:11:25.074Z,37.0369
2023-03-29T08:12:26.700Z,37.0762
2023-03-29T08:13:28.362Z,37.1062
2023-03-29T08:14:30.009Z,37.1554
2023-03-29T08:15:31.667Z,37.1800
2023-03-29T08:16:33.406Z,37.2854
2023-03-29T08:17:35.082Z,37.2815
2023-03-29T08:18:36.737Z,37.2238
2023-03-29T08:19:38.290Z,37.2031
2023-03-29T08:20:39.919Z,37.2185
2023-03-29T08:21:41.619Z,37.3108
2023-03-29T08:22:43.228Z,37.4100
2023-03-29T08:23:44.918Z,37.3723
2023-03-29T08:24:46.547Z,37.3754
2023-03-29T08:25:48.247Z,37.4108
2023-03-29T08:26:49.883Z,37.3623
2023-03-29T08:27:51.520Z,37.3592
2023-03-29T08:28:53.157Z,37.4662
2023-03-29T08:29:54.836Z,37.4785
2023-03-29T08:30:56.485Z,37.4454
2023-03-29T08:31:58.159Z,37.4254
2023-03-29T08:32:59.787Z,37.5015
2023-03-29T08:34:01.437Z,37.5369
2023-03-29T08:35:03.078Z,37.5508
2023-03-29T08:36:04.780Z,37.5700
2023-03-29T08:37:06.414Z,37.5531
2023-03-29T08:38:08.067Z,37.5754
2023-03-29T08:39:09.686Z,37.5515
2023-03-29T08:40:11.363Z,37.5838
2023-03-29T08:41:13.000Z,38.0415
2023-03-29T08:42:14.689Z,38.1377
2023-03-29T08:43:16.287Z,38.0908
2023-03-29T08:44:17.974Z,35.7431
2023-03-29T08:45:19.646Z,35.7792
2023-03-29T08:46:21.346Z,37.6031
2023-03-29T08:47:22.933Z,37.6492
2023-03-29T08:48:24.573Z,37.6400
2023-03-29T08:49:26.251Z,37.7431
2023-03-29T08:50:27.888Z,37.7854
2023-03-29T08:51:29.532Z,37.8569
2023-03-29T08:52:31.290Z,37.7700
2023-03-29T08:53:32.858Z,37.7908
2023-03-29T08:54:34.517Z,37.8392
2023-03-29T08:55:36.145Z,37.8638
2023-03-29T08:56:37.835Z,37.9654
2023-03-29T08:57:39.559Z,38.1838
2023-03-29T08:58:41.134Z,38.2331
2023-03-29T08:59:42.743Z,38.1992
2023-03-29T09:00:44.431Z,38.2331
2023-03-29T09:01:48.447Z,38.2177
2023-03-29T09:02:47.829Z,38.2392
2023-03-29T09:03:49.473Z,38.2100
2023-03-29T09:04:51.013Z,38.1931
2023-03-29T09:05:52.649Z,38.1815
2023-03-29T09:06:54.339Z,38.1608
2023-03-29T09:07:55.976Z,38.2285
2023-03-29T09:08:57.633Z,38.2915
2023-03-29T09:09:59.263Z,38.3185
2023-03-29T09:11:01.091Z,38.3515
2023-03-29T09:12:02.570Z,38.3038
2023-03-29T09:13:04.299Z,38.3369
2023-03-29T09:14:05.879Z,38.3969
2023-03-29T09:15:07.549Z,38.6469
2023-03-29T09:16:09.173Z,38.5900
2023-03-29T09:17:10.868Z,38.5223
2023-03-29T09:18:12.556Z,38.6215
2023-03-29T09:19:14.172Z,38.6131
2023-03-29T09:20:15.802Z,38.6608
2023-03-29T09:21:17.462Z,38.6815
2023-03-29T09:22:20.078Z,38.7238
2023-03-29T09:23:20.793Z,38.8085
2023-03-29T09:24:22.423Z,38.8362
2023-03-29T09:25:24.097Z,38.8662
2023-03-29T09:26:25.740Z,38.8723
2023-03-29T09:27:27.393Z,38.8754
2023-03-29T09:28:29.049Z,38.9131
2023-03-29T09:29:30.703Z,38.8962
2023-03-29T09:30:32.360Z,38.8738
2023-03-29T09:31:34.042Z,38.8500
2023-03-29T09:32:35.706Z,38.8762
2023-03-29T09:33:37.406Z,38.8915
2023-03-29T09:34:38.970Z,38.8931
2023-03-29T09:35:40.640Z,38.8792
2023-03-29T09:36:42.269Z,38.8954
2023-03-29T09:37:43.934Z,38.9546
2023-03-29T09:38:45.604Z,38.9477
2023-03-29T09:39:47.267Z,38.9485
2023-03-29T09:40:48.900Z,38.9438
2023-03-29T09:41:50.545Z,38.9223
2023-03-29T09:42:52.331Z,38.8969
2023-03-29T09:43:53.896Z,38.9008
2023-03-29T09:44:55.489Z,38.9077
2023-03-29T09:45:57.238Z,38.9254
2023-03-29T09:46:58.857Z,38.9554
2023-03-29T09:48:00.572Z,38.9554
2023-03-29T09:49:02.169Z,38.9646
2023-03-29T09:50:03.799Z,38.9354
2023-03-29T09:51:05.431Z,38.9346
2023-03-29T09:52:07.075Z,38.9485
2023-03-29T09:53:08.726Z,38.9646
2023-03-29T09:54:10.436Z,38.9685
2023-03-29T09:55:12.030Z,38.9854
2023-03-29T09:56:13.699Z,38.9946
2023-03-29T09:57:15.415Z,39.0100
2023-03-29T09:58:17.026Z,39.0231
2023-03-29T09:59:18.691Z,39.0285
2023-03-29T10:00:20.313Z,39.0354
2023-03-29T10:01:21.949Z,39.0615
2023-03-29T10:02:23.628Z,39.1438
2023-03-29T10:03:25.241Z,39.1462
2023-03-29T10:04:26.992Z,39.2169
2023-03-29T10:05:28.548Z,39.2762
2023-03-29T10:06:30.215Z,39.2792
2023-03-29T10:07:31.852Z,39.4415
2023-03-29T10:08:33.578Z,39.4700
2023-03-29T10:09:35.200Z,39.5985
2023-03-29T10:10:36.889Z,39.7962
2023-03-29T10:11:38.498Z,39.9008
2023-03-29T10:12:40.138Z,39.9254
2023-03-29T10:13:41.777Z,39.7354
2023-03-29T10:14:43.468Z,39.6538
2023-03-29T10:15:45.103Z,39.7392
2023-03-29T10:16:46.874Z,39.6677
2023-03-29T10:17:48.467Z,39.7292
2023-03-29T10:18:50.061Z,39.8131
2023-03-29T10:19:51.741Z,40.0285
2023-03-29T10:20:53.384Z,40.0815
2023-03-29T10:21:55.023Z,40.1085
2023-03-29T10:22:56.674Z,39.9754
2023-03-29T10:23:58.304Z,40.0292
2023-03-29T10:25:00.031Z,40.0285
2023-03-29T10:26:01.625Z,39.9100
2023-03-29T10:27:03.290Z,39.8638
2023-03-29T10:28:04.935Z,40.1908
2023-03-29T10:29:06.594Z,41.7646
2023-03-29T10:30:08.253Z,42.2123
2023-03-29T10:31:09.928Z,41.7385
2023-03-29T10:32:11.574Z,41.2646
2023-03-29T10:33:13.219Z,40.8931
2023-03-29T10:34:14.830Z,40.9238
2023-03-29T10:35:16.536Z,42.6185
2023-03-29T10:36:18.156Z,42.1792
2023-03-29T10:37:19.818Z,41.8038
2023-03-29T10:38:21.486Z,41.2023
2023-03-29T10:39:23.112Z,41.6408
2023-03-29T10:40:24.787Z,42.9077
2023-03-29T10:41:26.414Z,44.1585
2023-03-29T10:42:28.047Z,43.6662
2023-03-29T10:43:29.799Z,42.4385
2023-03-29T10:44:33.174Z,41.9300
2023-03-29T10:45:33.073Z,41.8515
2023-03-29T10:46:34.789Z,40.9815
2023-03-29T10:47:36.361Z,34.1815
2023-03-29T10:48:38.023Z,34.1977
2023-03-29T10:49:39.656Z,39.2762
2023-03-29T10:50:41.367Z,40.3146
2023-03-29T10:51:43.018Z,41.6569
2023-03-29T10:52:44.650Z,42.6285
2023-03-29T10:53:46.325Z,41.8731
2023-03-29T10:54:47.956Z,41.0785
2023-03-29T10:55:49.657Z,40.9846
2023-03-29T10:56:52.558Z,41.0585
2023-03-29T10:57:52.925Z,40.8000
2023-03-29T10:58:54.574Z,41.4500
2023-03-29T10:59:56.218Z,40.9723
2023-03-29T11:00:57.875Z,41.4292
2023-03-29T11:01:59.561Z,42.0954
2023-03-29T11:03:01.217Z,42.0923
2023-03-29T11:04:02.909Z,42.5677
2023-03-29T11:05:04.441Z,43.9554
2023-03-29T11:06:06.141Z,44.4169
2023-03-29T11:07:07.751Z,43.0023
2023-03-29T11:08:09.439Z,43.0931
2023-03-29T11:09:11.054Z,44.2615
2023-03-29T11:10:12.738Z,43.4108
2023-03-29T11:11:14.406Z,42.9300
2023-03-29T11:12:16.659Z,43.1431
2023-03-29T11:13:17.694Z,43.1638
2023-03-29T11:14:19.331Z,43.0823
2023-03-29T11:15:20.950Z,43.2762
2023-03-29T11:16:22.906Z,43.5146
2023-03-29T11:17:24.275Z,43.2062
2023-03-29T11:18:25.929Z,43.0938
2023-03-29T11:19:27.574Z,42.9446
2023-03-29T11:20:29.241Z,42.6377
2023-03-29T11:21:30.897Z,42.4031
2023-03-29T11:22:32.560Z,42.2862
2023-03-29T11:23:34.196Z,42.2023
2023-03-29T11:24:35.875Z,42.1362
2023-03-29T11:25:37.478Z,42.1531
2023-03-29T11:26:39.203Z,42.1500
2023-03-29T11:27:40.787Z,42.2077
2023-03-29T11:28:42.468Z,42.2185
2023-03-29T11:29:44.126Z,42.1577
2023-03-29T11:30:45.798Z,42.1700
2023-03-29T11:31:47.508Z,42.1762
2023-03-29T11:32:49.086Z,42.1823
2023-03-29T11:33:50.713Z,42.1777
2023-03-29T11:34:52.384Z,42.1523
2023-03-29T11:35:54.064Z,42.1769
2023-03-29T11:36:55.727Z,42.1523
2023-03-29T11:37:57.313Z,42.1323
2023-03-29T11:38:58.968Z,42.1231
2023-03-29T11:40:00.611Z,42.1169
2023-03-29T11:41:02.596Z,42.1100
2023-03-29T11:42:03.935Z,42.1115
2023-03-29T11:43:05.576Z,42.1592
2023-03-29T11:44:07.236Z,42.1446
2023-03-29T11:45:08.874Z,42.1700
2023-03-29T11:46:10.523Z,42.2008
2023-03-29T11:47:12.233Z,42.1962
2023-03-29T11:48:13.821Z,42.2254
2023-03-29T11:49:15.489Z,42.2331
2023-03-29T11:50:17.142Z,42.2469
2023-03-29T11:51:18.791Z,42.9762
2023-03-29T11:52:20.468Z,43.7462
2023-03-29T11:53:22.080Z,44.1262
2023-03-29T11:54:23.758Z,44.4369
2023-03-29T11:55:25.398Z,44.9015
2023-03-29T11:56:27.042Z,45.5154
2023-03-29T11:57:28.861Z,45.3085
2023-03-29T11:58:30.344Z,45.2331
2023-03-29T11:59:31.992Z,44.5669
2023-03-29T12:00:33.659Z,44.4408
2023-03-29T12:01:35.299Z,44.1031
2023-03-29T12:02:37.105Z,44.8492
2023-03-29T12:03:38.797Z,42.6215
2023-03-29T12:04:40.297Z,36.4100
2023-03-29T12:05:41.894Z,34.0108
2023-03-29T12:06:43.578Z,33.2538
2023-03-29T12:07:45.237Z,33.2462
2023-03-29T12:08:46.900Z,32.3362
2023-03-29T12:09:48.516Z,32.5615
2023-03-29T12:10:50.192Z,32.3531
2023-03-29T12:11:51.827Z,33.0269
2023-03-29T12:12:53.548Z,32.3246
2023-03-29T12:13:55.148Z,32.2938
2023-03-29T12:14:57.125Z,31.7446
2023-03-29T12:15:58.454Z,31.3746
2023-03-29T12:17:00.158Z,32.3162
2023-03-29T12:18:01.801Z,32.1462
2023-03-29T12:19:03.411Z,32.3885
2023-03-29T12:20:05.077Z,31.4669
2023-03-29T12:21:06.877Z,31.3769
2023-03-29T12:22:08.363Z,30.9546
2023-03-29T12:23:10.071Z,31.3262
2023-03-29T12:24:11.688Z,30.9885
2023-03-29T12:25:14.312Z,31.4938